Millerstown, Pennsylvania
Current Conditions -  °F | °C
As of 8:15 PM on Monday 26 Jan 2015 (Local Time) from KSEG Reporting Station
Light Snow Light Snow  
Wind Chill: 18°   Ceiling: 3500
Heat Index: 24°   Visibility: 1.7mi
Dew Point: 21°   Wind: 5mph
Humidity: 88%   Direction: 340°NNW
Pressure: 29.82"   Gusts: NA
Location:  40.55°N, 77.15°W
Report Text: KSEG 270115Z AUTO 34004KT 1 3/4SM -SN BR SCT029 OVC035 M04/M06 A2982 RMK AO2 P0000 T10441061
Loading
Personal Weather Stations






























Interactive Weather Map New forecast layout! Learn more

10-Day Weather Forecast

Advertisements
Track Severe Weather on mobile